sensor_id;sensor_type;location;lat;lon;timestamp;pressure;altitude;pressure_sealevel;temperature;humidity
21520;BME280;10921;53.614;9.882;2023-09-19T00:00:17;100059.50;;;19.23;79.85
21520;BME280;10921;53.614;9.882;2023-09-19T00:02:55;100108.91;;;19.50;80.20
21520;BME280;10921;53.614;9.882;2023-09-19T00:05:26;100103.06;;;19.46;79.73
21520;BME280;10921;53.614;9.882;2023-09-19T00:07:56;100091.41;;;19.46;79.71
21520;BME280;10921;53.614;9.882;2023-09-19T00:10:25;100097.69;;;19.40;79.60
21520;BME280;10921;53.614;9.882;2023-09-19T00:12:53;100053.34;;;19.09;80.18
21520;BME280;10921;53.614;9.882;2023-09-19T00:15:26;100100.78;;;19.43;80.28
21520;BME280;10921;53.614;9.882;2023-09-19T00:17:55;100110.97;;;19.41;80.04
21520;BME280;10921;53.614;9.882;2023-09-19T00:20:22;100107.91;;;19.38;80.30
21520;BME280;10921;53.614;9.882;2023-09-19T00:22:50;100084.09;;;19.15;80.77
21520;BME280;10921;53.614;9.882;2023-09-19T00:25:19;100104.38;;;19.30;81.15
21520;BME280;10921;53.614;9.882;2023-09-19T00:27:47;100103.63;;;19.23;81.00
21520;BME280;10921;53.614;9.882;2023-09-19T00:30:18;100114.59;;;19.28;81.04
21520;BME280;10921;53.614;9.882;2023-09-19T00:32:49;100104.88;;;19.21;81.22
21520;BME280;10921;53.614;9.882;2023-09-19T00:35:21;100117.78;;;19.19;81.25
21520;BME280;10921;53.614;9.882;2023-09-19T00:37:51;100109.16;;;19.35;80.73
21520;BME280;10921;53.614;9.882;2023-09-19T00:40:18;100075.22;;;19.01;81.52
21520;BME280;10921;53.614;9.882;2023-09-19T00:42:45;100071.06;;;18.98;81.67
21520;BME280;10921;53.614;9.882;2023-09-19T00:45:14;100099.69;;;19.13;81.82
21520;BME280;10921;53.614;9.882;2023-09-19T00:47:48;100107.22;;;19.04;82.61
21520;BME280;10921;53.614;9.882;2023-09-19T00:50:19;100117.63;;;19.07;82.45
21520;BME280;10921;53.614;9.882;2023-09-19T00:52:49;100046.47;;;18.62;82.59
21520;BME280;10921;53.614;9.882;2023-09-19T00:55:17;100086.91;;;18.82;82.44
21520;BME280;10921;53.614;9.882;2023-09-19T00:57:47;100086.13;;;18.75;82.57
21520;BME280;10921;53.614;9.882;2023-09-19T01:00:16;100081.16;;;18.72;82.88
21520;BME280;10921;53.614;9.882;2023-09-19T01:02:46;100036.28;;;18.51;82.72
21520;BME280;10921;53.614;9.882;2023-09-19T01:05:13;100084.69;;;18.72;82.87
21520;BME280;10921;53.614;9.882;2023-09-19T01:07:40;100115.19;;;18.86;83.25
21520;BME280;10921;53.614;9.882;2023-09-19T01:10:12;100137.59;;;19.00;83.69
21520;BME280;10921;53.614;9.882;2023-09-19T01:15:32;100140.94;;;18.95;84.35
21520;BME280;10921;53.614;9.882;2023-09-19T01:20:45;100148.47;;;18.86;84.69
21520;BME280;10921;53.614;9.882;2023-09-19T01:24:00;100137.03;;;18.91;84.34
21520;BME280;10921;53.614;9.882;2023-09-19T01:29:37;100142.63;;;18.89;84.30
21520;BME280;10921;53.614;9.882;2023-09-19T01:32:08;100153.03;;;18.86;84.05
21520;BME280;10921;53.614;9.882;2023-09-19T01:34:50;100142.84;;;18.88;83.92
21520;BME280;10921;53.614;9.882;2023-09-19T01:37:20;100146.19;;;18.83;83.51
21520;BME280;10921;53.614;9.882;2023-09-19T01:40:10;100143.88;;;18.87;84.10
21520;BME280;10921;53.614;9.882;2023-09-19T01:42:45;100148.25;;;18.81;83.14
21520;BME280;10921;53.614;9.882;2023-09-19T01:51:02;100162.63;;;18.75;82.29
21520;BME280;10921;53.614;9.882;2023-09-19T01:53:36;100162.00;;;18.73;82.00
21520;BME280;10921;53.614;9.882;2023-09-19T01:56:08;100158.69;;;18.65;81.43
21520;BME280;10921;53.614;9.882;2023-09-19T01:58:46;100159.34;;;18.60;81.08
21520;BME280;10921;53.614;9.882;2023-09-19T02:01:18;100177.00;;;18.63;81.00
21520;BME280;10921;53.614;9.882;2023-09-19T02:03:47;100175.53;;;18.60;80.24
21520;BME280;10921;53.614;9.882;2023-09-19T02:06:15;100172.41;;;18.56;80.32
21520;BME280;10921;53.614;9.882;2023-09-19T02:08:45;100161.41;;;18.45;79.78
21520;BME280;10921;53.614;9.882;2023-09-19T02:11:12;100187.75;;;18.49;79.60
21520;BME280;10921;53.614;9.882;2023-09-19T02:13:39;100200.06;;;18.45;79.45
21520;BME280;10921;53.614;9.882;2023-09-19T02:16:07;100182.16;;;18.38;79.43
21520;BME280;10921;53.614;9.882;2023-09-19T02:18:38;100199.19;;;18.38;80.04
21520;BME280;10921;53.614;9.882;2023-09-19T02:21:05;100167.44;;;18.14;80.46
21520;BME280;10921;53.614;9.882;2023-09-19T02:23:36;100194.03;;;18.30;81.14
21520;BME280;10921;53.614;9.882;2023-09-19T02:26:03;100154.94;;;18.06;81.33
21520;BME280;10921;53.614;9.882;2023-09-19T02:28:32;100099.50;;;17.77;81.86
21520;BME280;10921;53.614;9.882;2023-09-19T02:31:00;100183.41;;;18.22;82.41
21520;BME280;10921;53.614;9.882;2023-09-19T02:33:28;100169.50;;;18.12;82.86
21520;BME280;10921;53.614;9.882;2023-09-19T02:35:59;100175.53;;;18.01;83.50
21520;BME280;10921;53.614;9.882;2023-09-19T02:38:26;100148.25;;;17.76;83.59
21520;BME280;10921;53.614;9.882;2023-09-19T02:40:53;100208.97;;;18.13;84.24
21520;BME280;10921;53.614;9.882;2023-09-19T02:43:22;100204.81;;;18.10;84.47
21520;BME280;10921;53.614;9.882;2023-09-19T02:45:49;100192.53;;;18.08;84.19
21520;BME280;10921;53.614;9.882;2023-09-19T02:48:16;100184.44;;;18.01;84.39
21520;BME280;10921;53.614;9.882;2023-09-19T02:50:45;100206.47;;;18.11;84.23
21520;BME280;10921;53.614;9.882;2023-09-19T02:53:12;100152.66;;;17.83;84.47
21520;BME280;10921;53.614;9.882;2023-09-19T02:55:40;100196.47;;;18.05;84.38
21520;BME280;10921;53.614;9.882;2023-09-19T02:58:07;100160.75;;;17.90;83.73
21520;BME280;10921;53.614;9.882;2023-09-19T03:00:41;100203.16;;;18.16;83.58
21520;BME280;10921;53.614;9.882;2023-09-19T03:03:16;100139.16;;;17.83;82.96
21520;BME280;10921;53.614;9.882;2023-09-19T03:05:43;100165.31;;;18.03;82.49
21520;BME280;10921;53.614;9.882;2023-09-19T03:08:14;100163.44;;;18.03;81.30
21520;BME280;10921;53.614;9.882;2023-09-19T03:10:46;100191.09;;;18.12;81.42
21520;BME280;10921;53.614;9.882;2023-09-19T03:13:14;100190.03;;;18.19;80.83
21520;BME280;10921;53.614;9.882;2023-09-19T03:15:42;100218.97;;;18.32;80.16
21520;BME280;10921;53.614;9.882;2023-09-19T03:18:12;100140.63;;;17.86;79.63
21520;BME280;10921;53.614;9.882;2023-09-19T03:20:40;100229.53;;;18.40;79.35
21520;BME280;10921;53.614;9.882;2023-09-19T03:23:07;100211.88;;;18.24;79.24
21520;BME280;10921;53.614;9.882;2023-09-19T03:25:35;100185.91;;;18.17;78.73
21520;BME280;10921;53.614;9.882;2023-09-19T03:28:03;100230.59;;;18.46;78.45
21520;BME280;10921;53.614;9.882;2023-09-19T03:30:32;100199.00;;;18.26;78.40
21520;BME280;10921;53.614;9.882;2023-09-19T03:33:00;100234.97;;;18.47;78.09
21520;BME280;10921;53.614;9.882;2023-09-19T03:35:27;100236.81;;;18.46;77.88
21520;BME280;10921;53.614;9.882;2023-09-19T03:37:54;100166.78;;;17.92;77.92
21520;BME280;10921;53.614;9.882;2023-09-19T03:40:20;100233.91;;;18.28;78.13
21520;BME280;10921;53.614;9.882;2023-09-19T03:42:48;100222.88;;;18.23;78.24
21520;BME280;10921;53.614;9.882;2023-09-19T03:45:15;100245.34;;;18.30;78.66
21520;BME280;10921;53.614;9.882;2023-09-19T03:47:42;100244.91;;;18.26;78.64
21520;BME280;10921;53.614;9.882;2023-09-19T03:50:09;100201.25;;;17.97;79.23
21520;BME280;10921;53.614;9.882;2023-09-19T03:52:38;100244.88;;;18.20;79.14
21520;BME280;10921;53.614;9.882;2023-09-19T03:55:04;100254.03;;;18.12;79.10
21520;BME280;10921;53.614;9.882;2023-09-19T03:57:32;100194.66;;;17.58;78.57
21520;BME280;10921;53.614;9.882;2023-09-19T03:59:58;100236.13;;;17.91;79.06
21520;BME280;10921;53.614;9.882;2023-09-19T04:02:25;100260.44;;;17.98;78.55
21520;BME280;10921;53.614;9.882;2023-09-19T04:04:52;100220.88;;;17.64;78.08
21520;BME280;10921;53.614;9.882;2023-09-19T04:07:19;100214.44;;;17.65;77.96
21520;BME280;10921;53.614;9.882;2023-09-19T04:09:49;100273.72;;;18.00;77.57
21520;BME280;10921;53.614;9.882;2023-09-19T04:12:15;100270.56;;;17.83;76.86
21520;BME280;10921;53.614;9.882;2023-09-19T04:14:43;100277.16;;;17.67;76.54
21520;BME280;10921;53.614;9.882;2023-09-19T04:17:10;100238.41;;;17.40;76.39
21520;BME280;10921;53.614;9.882;2023-09-19T04:19:37;100282.84;;;17.57;76.21
21520;BME280;10921;53.614;9.882;2023-09-19T04:22:04;100281.81;;;17.52;75.24
21520;BME280;10921;53.614;9.882;2023-09-19T04:24:30;100265.72;;;17.31;75.14
21520;BME280;10921;53.614;9.882;2023-09-19T04:26:58;100255.13;;;17.22;75.25
21520;BME280;10921;53.614;9.882;2023-09-19T04:29:28;100293.56;;;17.38;75.13
21520;BME280;10921;53.614;9.882;2023-09-19T04:31:56;100297.25;;;17.30;75.34
21520;BME280;10921;53.614;9.882;2023-09-19T04:34:25;100297.59;;;17.20;75.24
21520;BME280;10921;53.614;9.882;2023-09-19T04:36:52;100295.75;;;17.21;75.41
21520;BME280;10921;53.614;9.882;2023-09-19T04:39:19;100281.66;;;16.91;75.28
21520;BME280;10921;53.614;9.882;2023-09-19T04:41:47;100298.75;;;17.05;75.08
21520;BME280;10921;53.614;9.882;2023-09-19T04:44:14;100321.41;;;17.10;75.29
21520;BME280;10921;53.614;9.882;2023-09-19T04:46:42;100322.63;;;17.08;75.29
21520;BME280;10921;53.614;9.882;2023-09-19T04:49:08;100325.69;;;17.05;75.21
21520;BME280;10921;53.614;9.882;2023-09-19T04:51:35;100303.31;;;17.04;75.11
21520;BME280;10921;53.614;9.882;2023-09-19T04:54:03;100306.09;;;16.90;75.48
21520;BME280;10921;53.614;9.882;2023-09-19T04:56:30;100323.97;;;16.97;75.51
21520;BME280;10921;53.614;9.882;2023-09-19T04:58:59;100336.56;;;16.90;75.46
21520;BME280;10921;53.614;9.882;2023-09-19T05:01:25;100295.53;;;16.67;75.61
21520;BME280;10921;53.614;9.882;2023-09-19T05:03:52;100313.47;;;16.81;75.86
21520;BME280;10921;53.614;9.882;2023-09-19T05:06:19;100340.03;;;16.84;76.24
21520;BME280;10921;53.614;9.882;2023-09-19T05:08:50;100294.09;;;16.64;75.86
21520;BME280;10921;53.614;9.882;2023-09-19T05:11:21;100314.47;;;16.73;76.08
21520;BME280;10921;53.614;9.882;2023-09-19T05:13:49;100344.53;;;16.77;75.86
21520;BME280;10921;53.614;9.882;2023-09-19T05:16:16;100322.59;;;16.59;75.88
21520;BME280;10921;53.614;9.882;2023-09-19T05:18:43;100342.63;;;16.71;76.03
21520;BME280;10921;53.614;9.882;2023-09-19T05:21:10;100324.00;;;16.54;75.87
21520;BME280;10921;53.614;9.882;2023-09-19T05:23:36;100339.88;;;16.64;75.95
21520;BME280;10921;53.614;9.882;2023-09-19T05:26:04;100343.09;;;16.60;76.12
21520;BME280;10921;53.614;9.882;2023-09-19T05:28:31;100320.78;;;16.44;76.03
21520;BME280;10921;53.614;9.882;2023-09-19T05:31:01;100316.34;;;16.37;76.36
21520;BME280;10921;53.614;9.882;2023-09-19T05:33:29;100344.50;;;16.56;76.27
21520;BME280;10921;53.614;9.882;2023-09-19T05:35:57;100340.53;;;16.51;76.51
21520;BME280;10921;53.614;9.882;2023-09-19T05:38:23;100338.84;;;16.50;76.60
21520;BME280;10921;53.614;9.882;2023-09-19T05:40:53;100345.91;;;16.51;76.87
21520;BME280;10921;53.614;9.882;2023-09-19T05:43:20;100343.16;;;16.45;77.16
21520;BME280;10921;53.614;9.882;2023-09-19T05:45:47;100348.66;;;16.37;77.76
21520;BME280;10921;53.614;9.882;2023-09-19T05:48:14;100338.84;;;16.29;77.49
21520;BME280;10921;53.614;9.882;2023-09-19T05:50:43;100358.94;;;16.48;77.54
21520;BME280;10921;53.614;9.882;2023-09-19T05:53:11;100277.97;;;15.92;77.55
21520;BME280;10921;53.614;9.882;2023-09-19T05:55:39;100348.28;;;16.40;77.75
21520;BME280;10921;53.614;9.882;2023-09-19T05:58:06;100367.88;;;16.48;77.77
21520;BME280;10921;53.614;9.882;2023-09-19T06:00:33;100356.81;;;16.43;77.92
21520;BME280;10921;53.614;9.882;2023-09-19T06:03:02;100363.56;;;16.54;77.69
21520;BME280;10921;53.614;9.882;2023-09-19T06:05:29;100360.75;;;16.62;77.50
21520;BME280;10921;53.614;9.882;2023-09-19T06:07:59;100361.47;;;16.71;77.46
21520;BME280;10921;53.614;9.882;2023-09-19T06:10:27;100313.75;;;16.43;77.10
21520;BME280;10921;53.614;9.882;2023-09-19T06:12:55;100369.88;;;16.82;76.26
21520;BME280;10921;53.614;9.882;2023-09-19T06:15:25;100366.97;;;16.84;76.18
21520;BME280;10921;53.614;9.882;2023-09-19T06:17:53;100366.72;;;17.00;76.10
21520;BME280;10921;53.614;9.882;2023-09-19T06:20:24;100370.94;;;17.09;75.73
21520;BME280;10921;53.614;9.882;2023-09-19T06:22:52;100373.88;;;17.14;75.62
21520;BME280;10921;53.614;9.882;2023-09-19T06:25:20;100340.59;;;17.01;74.67
21520;BME280;10921;53.614;9.882;2023-09-19T06:27:48;100379.59;;;17.33;74.51
21520;BME280;10921;53.614;9.882;2023-09-19T06:30:15;100309.88;;;16.95;74.04
21520;BME280;10921;53.614;9.882;2023-09-19T06:32:42;100306.09;;;16.90;73.62
21520;BME280;10921;53.614;9.882;2023-09-19T06:35:12;100389.06;;;17.50;73.41
21520;BME280;10921;53.614;9.882;2023-09-19T06:37:40;100318.91;;;17.09;73.29
21520;BME280;10921;53.614;9.882;2023-09-19T06:40:12;100388.03;;;17.51;73.13
21520;BME280;10921;53.614;9.882;2023-09-19T06:42:41;100390.75;;;17.57;72.93
21520;BME280;10921;53.614;9.882;2023-09-19T06:45:09;100386.19;;;17.58;72.78
21520;BME280;10921;53.614;9.882;2023-09-19T06:47:38;100317.13;;;17.22;72.68
21520;BME280;10921;53.614;9.882;2023-09-19T06:50:05;100386.00;;;17.59;72.60
21520;BME280;10921;53.614;9.882;2023-09-19T06:52:33;100366.91;;;17.54;71.94
21520;BME280;10921;53.614;9.882;2023-09-19T06:54:59;100398.78;;;17.72;72.01
21520;BME280;10921;53.614;9.882;2023-09-19T06:57:26;100376.38;;;17.72;71.83
21520;BME280;10921;53.614;9.882;2023-09-19T06:59:52;100390.91;;;17.71;71.77
21520;BME280;10921;53.614;9.882;2023-09-19T07:02:19;100390.25;;;17.69;71.75
21520;BME280;10921;53.614;9.882;2023-09-19T07:04:48;100410.44;;;17.79;71.87
21520;BME280;10921;53.614;9.882;2023-09-19T07:07:15;100418.81;;;17.91;71.83
21520;BME280;10921;53.614;9.882;2023-09-19T07:09:42;100367.53;;;17.56;72.03
21520;BME280;10921;53.614;9.882;2023-09-19T07:12:09;100367.00;;;17.68;71.59
21520;BME280;10921;53.614;9.882;2023-09-19T07:14:39;100418.88;;;18.04;71.63
21520;BME280;10921;53.614;9.882;2023-09-19T07:17:05;100431.59;;;18.10;71.59
21520;BME280;10921;53.614;9.882;2023-09-19T07:19:32;100404.94;;;17.94;71.56
21520;BME280;10921;53.614;9.882;2023-09-19T07:21:58;100419.06;;;18.03;71.31
21520;BME280;10921;53.614;9.882;2023-09-19T07:24:28;100431.06;;;18.35;70.91
21520;BME280;10921;53.614;9.882;2023-09-19T07:26:55;100405.22;;;18.12;71.00
21520;BME280;10921;53.614;9.882;2023-09-19T07:29:22;100408.56;;;18.14;70.79
21520;BME280;10921;53.614;9.882;2023-09-19T07:31:52;100443.53;;;18.29;70.98
21520;BME280;10921;53.614;9.882;2023-09-19T07:34:19;100454.13;;;18.31;70.64
21520;BME280;10921;53.614;9.882;2023-09-19T07:36:48;100450.59;;;18.30;70.47
21520;BME280;10921;53.614;9.882;2023-09-19T07:39:14;100425.41;;;18.16;70.59
21520;BME280;10921;53.614;9.882;2023-09-19T07:41:48;100460.38;;;18.31;70.68
21520;BME280;10921;53.614;9.882;2023-09-19T07:44:16;100397.84;;;17.86;70.97
21520;BME280;10921;53.614;9.882;2023-09-19T07:46:43;100467.19;;;18.27;71.52
21520;BME280;10921;53.614;9.882;2023-09-19T07:49:10;100445.13;;;18.17;70.55
21520;BME280;10921;53.614;9.882;2023-09-19T07:51:37;100418.78;;;17.84;69.13
21520;BME280;10921;53.614;9.882;2023-09-19T07:54:05;100460.19;;;17.98;67.07
21520;BME280;10921;53.614;9.882;2023-09-19T07:56:31;100438.16;;;17.95;67.73
21520;BME280;10921;53.614;9.882;2023-09-19T07:58:58;100451.19;;;17.91;68.71
21520;BME280;10921;53.614;9.882;2023-09-19T08:01:26;100432.00;;;17.73;69.49
21520;BME280;10921;53.614;9.882;2023-09-19T08:03:54;100417.53;;;17.59;70.29
21520;BME280;10921;53.614;9.882;2023-09-19T08:06:21;100414.66;;;17.61;71.05
21520;BME280;10921;53.614;9.882;2023-09-19T08:08:51;100410.94;;;17.62;72.07
21520;BME280;10921;53.614;9.882;2023-09-19T08:11:20;100448.03;;;17.81;72.45
21520;BME280;10921;53.614;9.882;2023-09-19T08:13:47;100443.19;;;17.70;72.30
21520;BME280;10921;53.614;9.882;2023-09-19T08:16:18;100446.81;;;17.83;72.88
21520;BME280;10921;53.614;9.882;2023-09-19T08:18:49;100452.94;;;17.99;72.44
21520;BME280;10921;53.614;9.882;2023-09-19T08:21:19;100417.16;;;17.90;71.98
21520;BME280;10921;53.614;9.882;2023-09-19T08:23:46;100460.22;;;18.05;71.64
21520;BME280;10921;53.614;9.882;2023-09-19T08:26:12;100448.00;;;18.09;71.52
21520;BME280;10921;53.614;9.882;2023-09-19T08:28:39;100426.97;;;18.04;71.56
21520;BME280;10921;53.614;9.882;2023-09-19T08:31:11;100439.06;;;18.08;70.74
21520;BME280;10921;53.614;9.882;2023-09-19T08:33:37;100404.34;;;18.05;70.80
21520;BME280;10921;53.614;9.882;2023-09-19T08:36:06;100398.94;;;18.05;70.59
21520;BME280;10921;53.614;9.882;2023-09-19T08:38:34;100455.66;;;18.46;69.92
21520;BME280;10921;53.614;9.882;2023-09-19T08:41:06;100471.22;;;18.44;70.20
21520;BME280;10921;53.614;9.882;2023-09-19T08:43:36;100460.22;;;18.52;69.63
21520;BME280;10921;53.614;9.882;2023-09-19T08:46:12;100464.38;;;18.55;69.32
21520;BME280;10921;53.614;9.882;2023-09-19T08:48:58;100469.66;;;18.63;69.25
21520;BME280;10921;53.614;9.882;2023-09-19T08:51:43;100406.94;;;18.26;68.58
21520;BME280;10921;53.614;9.882;2023-09-19T08:54:21;100444.66;;;18.54;67.93
21520;BME280;10921;53.614;9.882;2023-09-19T08:56:50;100475.06;;;18.63;68.29
21520;BME280;10921;53.614;9.882;2023-09-19T08:59:21;100453.66;;;18.61;67.98
21520;BME280;10921;53.614;9.882;2023-09-19T09:01:51;100462.31;;;18.57;68.06
21520;BME280;10921;53.614;9.882;2023-09-19T09:04:22;100464.03;;;18.65;67.83
21520;BME280;10921;53.614;9.882;2023-09-19T09:06:50;100479.06;;;18.87;67.28
21520;BME280;10921;53.614;9.882;2023-09-19T09:09:20;100489.25;;;18.85;67.15
21520;BME280;10921;53.614;9.882;2023-09-19T09:11:48;100449.94;;;18.76;66.35
21520;BME280;10921;53.614;9.882;2023-09-19T09:14:18;100445.97;;;18.72;65.97
21520;BME280;10921;53.614;9.882;2023-09-19T09:16:46;100500.97;;;19.05;65.57
21520;BME280;10921;53.614;9.882;2023-09-19T09:19:15;100484.75;;;19.05;64.82
21520;BME280;10921;53.614;9.882;2023-09-19T09:21:51;100494.91;;;19.10;65.02
21520;BME280;10921;53.614;9.882;2023-09-19T09:24:30;100488.50;;;19.17;65.44
21520;BME280;10921;53.614;9.882;2023-09-19T09:26:59;100496.19;;;19.20;64.30
21520;BME280;10921;53.614;9.882;2023-09-19T09:29:45;100418.56;;;18.88;64.86
21520;BME280;10921;53.614;9.882;2023-09-19T09:32:19;100469.59;;;19.24;63.85
21520;BME280;10921;53.614;9.882;2023-09-19T09:34:52;100496.84;;;19.49;63.89
21520;BME280;10921;53.614;9.882;2023-09-19T09:37:22;100484.97;;;19.43;63.11
21520;BME280;10921;53.614;9.882;2023-09-19T09:39:52;100455.84;;;19.45;61.99
21520;BME280;10921;53.614;9.882;2023-09-19T09:42:38;100492.91;;;19.78;62.86
21520;BME280;10921;53.614;9.882;2023-09-19T09:47:55;100499.91;;;20.18;61.87
21520;BME280;10921;53.614;9.882;2023-09-19T09:50:35;100510.09;;;20.43;61.17
21520;BME280;10921;53.614;9.882;2023-09-19T09:53:24;100463.59;;;20.39;58.90
21520;BME280;10921;53.614;9.882;2023-09-19T09:56:08;100503.69;;;20.75;58.49
21520;BME280;10921;53.614;9.882;2023-09-19T09:58:49;100509.25;;;20.87;59.40
21520;BME280;10921;53.614;9.882;2023-09-19T10:01:18;100517.53;;;20.98;58.02
21520;BME280;10921;53.614;9.882;2023-09-19T10:03:45;100447.41;;;20.70;57.49
21520;BME280;10921;53.614;9.882;2023-09-19T10:06:16;100504.66;;;21.25;58.25
21520;BME280;10921;53.614;9.882;2023-09-19T10:09:03;100444.06;;;21.06;57.28
21520;BME280;10921;53.614;9.882;2023-09-19T10:11:47;100446.59;;;21.01;56.32
21520;BME280;10921;53.614;9.882;2023-09-19T10:14:27;100501.88;;;21.38;55.29
21520;BME280;10921;53.614;9.882;2023-09-19T10:17:00;100445.75;;;21.01;53.87
21520;BME280;10921;53.614;9.882;2023-09-19T10:19:37;100501.59;;;21.47;53.92
21520;BME280;10921;53.614;9.882;2023-09-19T10:22:11;100501.59;;;21.47;53.54
21520;BME280;10921;53.614;9.882;2023-09-19T10:24:39;100450.25;;;21.20;53.77
21520;BME280;10921;53.614;9.882;2023-09-19T10:27:26;100485.09;;;21.48;53.87
21520;BME280;10921;53.614;9.882;2023-09-19T10:29:55;100442.44;;;21.30;53.19
21520;BME280;10921;53.614;9.882;2023-09-19T10:32:25;100486.72;;;21.74;52.43
21520;BME280;10921;53.614;9.882;2023-09-19T10:34:55;100469.34;;;21.82;52.48
21520;BME280;10921;53.614;9.882;2023-09-19T10:37:23;100459.28;;;21.64;51.74
21520;BME280;10921;53.614;9.882;2023-09-19T10:39:53;100501.53;;;21.78;51.92
21520;BME280;10921;53.614;9.882;2023-09-19T10:42:23;100485.75;;;21.68;51.42
21520;BME280;10921;53.614;9.882;2023-09-19T10:44:54;100499.88;;;21.77;51.69
21520;BME280;10921;53.614;9.882;2023-09-19T10:47:26;100500.88;;;21.58;50.96
21520;BME280;10921;53.614;9.882;2023-09-19T10:49:53;100477.44;;;21.38;51.24
21520;BME280;10921;53.614;9.882;2023-09-19T10:52:23;100494.69;;;21.51;52.33
21520;BME280;10921;53.614;9.882;2023-09-19T10:54:53;100487.63;;;21.43;51.88
21520;BME280;10921;53.614;9.882;2023-09-19T10:57:24;100438.97;;;21.17;51.32
21520;BME280;10921;53.614;9.882;2023-09-19T11:00:02;100487.84;;;21.41;51.78
21520;BME280;10921;53.614;9.882;2023-09-19T11:03:16;100500.94;;;21.51;51.97
21520;BME280;10921;53.614;9.882;2023-09-19T11:06:03;100477.19;;;21.40;53.13
21520;BME280;10921;53.614;9.882;2023-09-19T11:09:00;100504.41;;;21.58;52.44
21520;BME280;10921;53.614;9.882;2023-09-19T11:30:37;100491.25;;;21.37;51.71
21520;BME280;10921;53.614;9.882;2023-09-19T11:36:09;100460.34;;;21.38;51.04
21520;BME280;10921;53.614;9.882;2023-09-19T11:43:49;100486.59;;;21.69;50.72
21520;BME280;10921;53.614;9.882;2023-09-19T11:46:21;100454.22;;;21.42;51.10
21520;BME280;10921;53.614;9.882;2023-09-19T11:48:49;100491.19;;;21.68;50.90
21520;BME280;10921;53.614;9.882;2023-09-19T11:51:21;100475.72;;;21.69;50.37
21520;BME280;10921;53.614;9.882;2023-09-19T11:53:55;100494.44;;;21.77;50.93
21520;BME280;10921;53.614;9.882;2023-09-19T11:56:23;100487.75;;;21.80;50.76
21520;BME280;10921;53.614;9.882;2023-09-19T11:58:53;100464.91;;;21.62;50.28
21520;BME280;10921;53.614;9.882;2023-09-19T12:01:31;100480.19;;;21.82;50.92
21520;BME280;10921;53.614;9.882;2023-09-19T12:04:02;100452.66;;;21.78;51.26
21520;BME280;10921;53.614;9.882;2023-09-19T12:06:31;100459.00;;;21.90;51.79
21520;BME280;10921;53.614;9.882;2023-09-19T12:09:02;100483.13;;;21.80;50.12
21520;BME280;10921;53.614;9.882;2023-09-19T12:11:33;100429.78;;;21.42;51.44
21520;BME280;10921;53.614;9.882;2023-09-19T12:14:08;100483.81;;;21.75;50.34
21520;BME280;10921;53.614;9.882;2023-09-19T12:16:34;100387.09;;;21.31;50.60
21520;BME280;10921;53.614;9.882;2023-09-19T12:19:18;100486.56;;;21.94;50.77
21520;BME280;10921;53.614;9.882;2023-09-19T12:21:59;100484.63;;;22.01;50.75
21520;BME280;10921;53.614;9.882;2023-09-19T12:24:26;100451.16;;;21.57;50.96
21520;BME280;10921;53.614;9.882;2023-09-19T12:27:03;100434.69;;;21.77;51.14
21520;BME280;10921;53.614;9.882;2023-09-19T12:29:42;100487.06;;;22.09;50.26
21520;BME280;10921;53.614;9.882;2023-09-19T12:32:09;100469.16;;;22.20;49.93
21520;BME280;10921;53.614;9.882;2023-09-19T12:34:36;100479.69;;;22.46;48.16
21520;BME280;10921;53.614;9.882;2023-09-19T12:37:15;100483.00;;;22.66;48.70
21520;BME280;10921;53.614;9.882;2023-09-19T12:39:49;100482.84;;;22.79;48.60
21520;BME280;10921;53.614;9.882;2023-09-19T12:42:22;100466.38;;;22.74;47.29
21520;BME280;10921;53.614;9.882;2023-09-19T12:44:51;100425.94;;;22.48;47.51
21520;BME280;10921;53.614;9.882;2023-09-19T12:47:29;100464.06;;;22.78;46.80
21520;BME280;10921;53.614;9.882;2023-09-19T12:50:07;100471.66;;;22.88;47.16
21520;BME280;10921;53.614;9.882;2023-09-19T12:52:36;100479.91;;;22.81;47.44
21520;BME280;10921;53.614;9.882;2023-09-19T12:55:04;100455.81;;;22.66;46.81
21520;BME280;10921;53.614;9.882;2023-09-19T12:57:34;100394.72;;;22.21;46.73
21520;BME280;10921;53.614;9.882;2023-09-19T13:00:02;100455.25;;;22.46;47.67
21520;BME280;10921;53.614;9.882;2023-09-19T13:02:28;100427.31;;;22.39;47.68
21520;BME280;10921;53.614;9.882;2023-09-19T13:04:55;100403.22;;;22.13;46.63
21520;BME280;10921;53.614;9.882;2023-09-19T13:07:45;100451.06;;;22.62;46.39
21520;BME280;10921;53.614;9.882;2023-09-19T13:10:13;100458.66;;;22.60;46.99
21520;BME280;10921;53.614;9.882;2023-09-19T13:12:46;100423.75;;;22.57;46.54
21520;BME280;10921;53.614;9.882;2023-09-19T13:15:15;100424.84;;;22.67;45.39
21520;BME280;10921;53.614;9.882;2023-09-19T13:17:47;100442.22;;;22.85;45.85
21520;BME280;10921;53.614;9.882;2023-09-19T13:20:26;100376.81;;;22.61;45.65
21520;BME280;10921;53.614;9.882;2023-09-19T13:22:58;100434.19;;;22.90;45.99
21520;BME280;10921;53.614;9.882;2023-09-19T13:25:32;100435.41;;;23.05;45.95
21520;BME280;10921;53.614;9.882;2023-09-19T13:27:59;100408.06;;;23.00;46.38
21520;BME280;10921;53.614;9.882;2023-09-19T13:30:30;100400.13;;;22.99;44.95
21520;BME280;10921;53.614;9.882;2023-09-19T13:33:08;100391.53;;;23.13;45.54
21520;BME280;10921;53.614;9.882;2023-09-19T13:35:38;100417.44;;;23.28;44.73
21520;BME280;10921;53.614;9.882;2023-09-19T13:38:06;100395.69;;;23.39;44.68
21520;BME280;10921;53.614;9.882;2023-09-19T13:40:41;100413.72;;;23.52;44.95
21520;BME280;10921;53.614;9.882;2023-09-19T13:43:10;100416.88;;;23.37;44.46
21520;BME280;10921;53.614;9.882;2023-09-19T13:45:37;100372.59;;;23.30;43.72
21520;BME280;10921;53.614;9.882;2023-09-19T13:48:07;100384.69;;;23.46;43.74
21520;BME280;10921;53.614;9.882;2023-09-19T13:50:34;100385.50;;;23.46;44.04